sensor_id;sensor_type;location;lat;lon;timestamp;P1;durP1;ratioP1;P2;durP2;ratioP2
7432;SDS011;32233;49.500;7.764;2022-07-29T00:00:54;4.27;;;4.00;;
7432;SDS011;32233;49.500;7.764;2022-07-29T00:03:21;5.50;;;4.10;;
7432;SDS011;32233;49.500;7.764;2022-07-29T00:05:48;4.30;;;4.00;;
7432;SDS011;32233;49.500;7.764;2022-07-29T00:08:15;4.53;;;3.93;;
7432;SDS011;32233;49.500;7.764;2022-07-29T00:10:41;5.20;;;4.27;;
7432;SDS011;32233;49.500;7.764;2022-07-29T00:13:08;4.53;;;4.13;;
7432;SDS011;32233;49.500;7.764;2022-07-29T00:15:34;4.90;;;4.47;;
7432;SDS011;32233;49.500;7.764;2022-07-29T00:18:01;4.63;;;4.10;;
7432;SDS011;32233;49.500;7.764;2022-07-29T00:20:27;4.70;;;4.30;;
7432;SDS011;32233;49.500;7.764;2022-07-29T00:22:54;5.27;;;4.87;;
7432;SDS011;32233;49.500;7.764;2022-07-29T00:25:20;7.13;;;4.97;;
7432;SDS011;32233;49.500;7.764;2022-07-29T00:27:47;4.83;;;4.50;;
7432;SDS011;32233;49.500;7.764;2022-07-29T00:30:13;4.70;;;4.30;;
7432;SDS011;32233;49.500;7.764;2022-07-29T00:32:40;6.73;;;5.13;;
7432;SDS011;32233;49.500;7.764;2022-07-29T00:35:06;5.27;;;4.83;;
7432;SDS011;32233;49.500;7.764;2022-07-29T00:37:51;5.13;;;4.63;;
7432;SDS011;32233;49.500;7.764;2022-07-29T00:40:18;4.53;;;4.27;;
7432;SDS011;32233;49.500;7.764;2022-07-29T00:42:51;5.07;;;4.67;;
7432;SDS011;32233;49.500;7.764;2022-07-29T00:45:17;5.23;;;4.63;;
7432;SDS011;32233;49.500;7.764;2022-07-29T00:47:44;4.90;;;4.50;;
7432;SDS011;32233;49.500;7.764;2022-07-29T00:50:11;5.13;;;4.67;;
7432;SDS011;32233;49.500;7.764;2022-07-29T00:52:39;4.97;;;4.57;;
7432;SDS011;32233;49.500;7.764;2022-07-29T00:55:06;4.97;;;4.50;;
7432;SDS011;32233;49.500;7.764;2022-07-29T00:57:34;4.63;;;4.33;;
7432;SDS011;32233;49.500;7.764;2022-07-29T01:00:03;4.80;;;4.40;;
7432;SDS011;32233;49.500;7.764;2022-07-29T01:02:29;4.77;;;4.37;;
7432;SDS011;32233;49.500;7.764;2022-07-29T01:04:56;6.80;;;5.23;;
7432;SDS011;32233;49.500;7.764;2022-07-29T01:07:26;5.97;;;4.93;;
7432;SDS011;32233;49.500;7.764;2022-07-29T01:09:53;5.43;;;5.03;;
7432;SDS011;32233;49.500;7.764;2022-07-29T01:12:26;6.00;;;5.30;;
7432;SDS011;32233;49.500;7.764;2022-07-29T01:14:53;6.07;;;5.57;;
7432;SDS011;32233;49.500;7.764;2022-07-29T01:17:26;5.27;;;4.87;;
7432;SDS011;32233;49.500;7.764;2022-07-29T01:27:41;6.23;;;5.60;;
7432;SDS011;32233;49.500;7.764;2022-07-29T01:30:11;5.17;;;4.87;;
7432;SDS011;32233;49.500;7.764;2022-07-29T01:32:40;6.30;;;5.80;;
7432;SDS011;32233;49.500;7.764;2022-07-29T01:35:19;5.90;;;5.30;;
7432;SDS011;32233;49.500;7.764;2022-07-29T01:37:49;5.67;;;5.07;;
7432;SDS011;32233;49.500;7.764;2022-07-29T01:41:02;5.47;;;4.80;;
7432;SDS011;32233;49.500;7.764;2022-07-29T01:43:06;6.23;;;5.73;;
7432;SDS011;32233;49.500;7.764;2022-07-29T01:50:40;6.20;;;5.70;;
7432;SDS011;32233;49.500;7.764;2022-07-29T01:53:10;5.60;;;5.20;;
7432;SDS011;32233;49.500;7.764;2022-07-29T02:02:41;6.20;;;5.60;;
7432;SDS011;32233;49.500;7.764;2022-07-29T02:05:11;6.03;;;5.53;;
7432;SDS011;32233;49.500;7.764;2022-07-29T02:07:43;5.53;;;5.10;;
7432;SDS011;32233;49.500;7.764;2022-07-29T02:10:11;5.27;;;4.77;;
7432;SDS011;32233;49.500;7.764;2022-07-29T02:12:39;5.63;;;5.07;;
7432;SDS011;32233;49.500;7.764;2022-07-29T02:15:07;5.63;;;5.30;;
7432;SDS011;32233;49.500;7.764;2022-07-29T02:17:41;5.10;;;4.80;;
7432;SDS011;32233;49.500;7.764;2022-07-29T02:20:10;5.93;;;5.20;;
7432;SDS011;32233;49.500;7.764;2022-07-29T02:22:39;5.50;;;4.90;;
7432;SDS011;32233;49.500;7.764;2022-07-29T02:25:09;5.57;;;5.17;;
7432;SDS011;32233;49.500;7.764;2022-07-29T02:27:40;5.13;;;4.73;;
7432;SDS011;32233;49.500;7.764;2022-07-29T02:30:07;5.57;;;5.07;;
7432;SDS011;32233;49.500;7.764;2022-07-29T02:32:36;5.77;;;5.20;;
7432;SDS011;32233;49.500;7.764;2022-07-29T02:35:05;6.67;;;6.07;;
7432;SDS011;32233;49.500;7.764;2022-07-29T02:37:35;6.13;;;5.30;;
7432;SDS011;32233;49.500;7.764;2022-07-29T02:40:04;5.80;;;5.30;;
7432;SDS011;32233;49.500;7.764;2022-07-29T02:42:32;5.20;;;4.80;;
7432;SDS011;32233;49.500;7.764;2022-07-29T02:45:01;6.23;;;5.53;;
7432;SDS011;32233;49.500;7.764;2022-07-29T02:47:35;5.67;;;5.17;;
7432;SDS011;32233;49.500;7.764;2022-07-29T02:50:12;6.67;;;5.97;;
7432;SDS011;32233;49.500;7.764;2022-07-29T02:52:44;6.20;;;5.60;;
7432;SDS011;32233;49.500;7.764;2022-07-29T02:55:16;5.47;;;5.07;;
7432;SDS011;32233;49.500;7.764;2022-07-29T02:57:46;6.53;;;5.63;;
7432;SDS011;32233;49.500;7.764;2022-07-29T03:00:23;6.73;;;6.07;;
7432;SDS011;32233;49.500;7.764;2022-07-29T03:02:52;6.00;;;5.50;;
7432;SDS011;32233;49.500;7.764;2022-07-29T03:05:22;6.37;;;5.77;;
7432;SDS011;32233;49.500;7.764;2022-07-29T03:07:51;6.80;;;6.10;;
7432;SDS011;32233;49.500;7.764;2022-07-29T03:10:20;6.03;;;5.43;;
7432;SDS011;32233;49.500;7.764;2022-07-29T03:12:48;5.90;;;5.30;;
7432;SDS011;32233;49.500;7.764;2022-07-29T03:15:15;5.67;;;5.17;;
7432;SDS011;32233;49.500;7.764;2022-07-29T03:17:43;6.10;;;5.53;;
7432;SDS011;32233;49.500;7.764;2022-07-29T03:20:11;5.43;;;5.03;;
7432;SDS011;32233;49.500;7.764;2022-07-29T03:22:39;6.20;;;5.70;;
7432;SDS011;32233;49.500;7.764;2022-07-29T03:25:11;6.30;;;5.80;;
7432;SDS011;32233;49.500;7.764;2022-07-29T03:27:39;6.30;;;5.70;;
7432;SDS011;32233;49.500;7.764;2022-07-29T03:30:05;7.17;;;5.70;;
7432;SDS011;32233;49.500;7.764;2022-07-29T03:32:35;5.93;;;5.40;;
7432;SDS011;32233;49.500;7.764;2022-07-29T03:35:03;5.87;;;5.27;;
7432;SDS011;32233;49.500;7.764;2022-07-29T03:37:30;6.40;;;5.90;;
7432;SDS011;32233;49.500;7.764;2022-07-29T03:40:00;7.00;;;6.30;;
7432;SDS011;32233;49.500;7.764;2022-07-29T03:42:31;6.37;;;5.77;;
7432;SDS011;32233;49.500;7.764;2022-07-29T03:45:03;6.27;;;5.67;;
7432;SDS011;32233;49.500;7.764;2022-07-29T03:47:31;6.13;;;5.63;;
7432;SDS011;32233;49.500;7.764;2022-07-29T03:50:15;7.00;;;6.20;;
7432;SDS011;32233;49.500;7.764;2022-07-29T03:52:43;7.37;;;6.17;;
7432;SDS011;32233;49.500;7.764;2022-07-29T03:55:10;6.77;;;5.70;;
7432;SDS011;32233;49.500;7.764;2022-07-29T03:57:39;5.73;;;5.20;;
7432;SDS011;32233;49.500;7.764;2022-07-29T04:00:07;6.10;;;5.00;;
7432;SDS011;32233;49.500;7.764;2022-07-29T04:02:36;6.43;;;5.40;;
7432;SDS011;32233;49.500;7.764;2022-07-29T04:05:03;5.87;;;5.33;;
7432;SDS011;32233;49.500;7.764;2022-07-29T04:07:30;6.60;;;6.00;;
7432;SDS011;32233;49.500;7.764;2022-07-29T04:09:58;5.47;;;5.07;;
7432;SDS011;32233;49.500;7.764;2022-07-29T04:12:26;7.43;;;5.87;;
7432;SDS011;32233;49.500;7.764;2022-07-29T04:14:53;5.63;;;5.13;;
7432;SDS011;32233;49.500;7.764;2022-07-29T04:17:19;6.33;;;5.37;;
7432;SDS011;32233;49.500;7.764;2022-07-29T04:19:47;5.77;;;5.30;;
7432;SDS011;32233;49.500;7.764;2022-07-29T04:22:15;5.90;;;5.30;;
7432;SDS011;32233;49.500;7.764;2022-07-29T04:24:43;5.80;;;4.97;;
7432;SDS011;32233;49.500;7.764;2022-07-29T04:27:13;8.67;;;5.60;;
7432;SDS011;32233;49.500;7.764;2022-07-29T04:29:41;6.33;;;5.53;;
7432;SDS011;32233;49.500;7.764;2022-07-29T04:32:22;5.80;;;5.30;;
7432;SDS011;32233;49.500;7.764;2022-07-29T04:34:49;5.70;;;5.10;;
7432;SDS011;32233;49.500;7.764;2022-07-29T04:37:17;6.03;;;5.20;;
7432;SDS011;32233;49.500;7.764;2022-07-29T04:39:44;5.77;;;5.17;;
7432;SDS011;32233;49.500;7.764;2022-07-29T04:42:12;5.80;;;4.80;;
7432;SDS011;32233;49.500;7.764;2022-07-29T04:44:40;5.07;;;4.60;;
7432;SDS011;32233;49.500;7.764;2022-07-29T04:47:08;5.17;;;4.70;;
7432;SDS011;32233;49.500;7.764;2022-07-29T04:49:37;5.17;;;4.73;;
7432;SDS011;32233;49.500;7.764;2022-07-29T04:52:05;8.67;;;5.70;;
7432;SDS011;32233;49.500;7.764;2022-07-29T04:54:32;9.20;;;5.47;;
7432;SDS011;32233;49.500;7.764;2022-07-29T04:56:59;5.90;;;5.37;;
7432;SDS011;32233;49.500;7.764;2022-07-29T04:59:26;5.90;;;5.40;;
7432;SDS011;32233;49.500;7.764;2022-07-29T05:01:54;6.37;;;5.30;;
7432;SDS011;32233;49.500;7.764;2022-07-29T05:04:21;7.63;;;5.73;;
7432;SDS011;32233;49.500;7.764;2022-07-29T05:06:49;5.90;;;5.30;;
7432;SDS011;32233;49.500;7.764;2022-07-29T05:09:16;6.77;;;5.50;;
7432;SDS011;32233;49.500;7.764;2022-07-29T05:11:42;6.87;;;4.87;;
7432;SDS011;32233;49.500;7.764;2022-07-29T05:14:10;5.47;;;5.07;;
7432;SDS011;32233;49.500;7.764;2022-07-29T05:16:37;5.70;;;5.30;;
7432;SDS011;32233;49.500;7.764;2022-07-29T05:19:05;5.47;;;4.63;;
7432;SDS011;32233;49.500;7.764;2022-07-29T05:21:40;5.90;;;5.10;;
7432;SDS011;32233;49.500;7.764;2022-07-29T05:24:07;5.20;;;4.80;;
7432;SDS011;32233;49.500;7.764;2022-07-29T05:26:35;5.13;;;4.63;;
7432;SDS011;32233;49.500;7.764;2022-07-29T05:29:02;5.70;;;4.50;;
7432;SDS011;32233;49.500;7.764;2022-07-29T05:31:28;6.07;;;4.90;;
7432;SDS011;32233;49.500;7.764;2022-07-29T05:33:55;4.93;;;4.40;;
7432;SDS011;32233;49.500;7.764;2022-07-29T05:36:21;4.27;;;3.97;;
7432;SDS011;32233;49.500;7.764;2022-07-29T05:38:48;7.53;;;4.63;;
7432;SDS011;32233;49.500;7.764;2022-07-29T05:41:15;4.27;;;3.97;;
7432;SDS011;32233;49.500;7.764;2022-07-29T05:43:43;4.40;;;4.00;;
7432;SDS011;32233;49.500;7.764;2022-07-29T05:46:10;5.00;;;4.50;;
7432;SDS011;32233;49.500;7.764;2022-07-29T05:48:36;4.17;;;3.57;;
7432;SDS011;32233;49.500;7.764;2022-07-29T05:51:03;4.30;;;3.90;;
7432;SDS011;32233;49.500;7.764;2022-07-29T05:53:29;3.97;;;3.63;;
7432;SDS011;32233;49.500;7.764;2022-07-29T05:55:57;4.07;;;3.60;;
7432;SDS011;32233;49.500;7.764;2022-07-29T05:58:24;4.53;;;3.40;;
7432;SDS011;32233;49.500;7.764;2022-07-29T06:00:51;4.43;;;3.33;;
7432;SDS011;32233;49.500;7.764;2022-07-29T06:03:18;3.90;;;3.50;;
7432;SDS011;32233;49.500;7.764;2022-07-29T06:05:46;4.10;;;3.70;;
7432;SDS011;32233;49.500;7.764;2022-07-29T06:08:13;4.17;;;3.93;;
7432;SDS011;32233;49.500;7.764;2022-07-29T06:10:39;4.77;;;4.37;;
7432;SDS011;32233;49.500;7.764;2022-07-29T06:13:07;4.70;;;4.30;;
7432;SDS011;32233;49.500;7.764;2022-07-29T06:15:34;5.10;;;4.70;;
7432;SDS011;32233;49.500;7.764;2022-07-29T06:18:00;6.80;;;4.63;;
7432;SDS011;32233;49.500;7.764;2022-07-29T06:20:30;7.73;;;4.77;;
7432;SDS011;32233;49.500;7.764;2022-07-29T06:22:58;4.77;;;4.47;;
7432;SDS011;32233;49.500;7.764;2022-07-29T06:25:25;4.77;;;4.30;;
7432;SDS011;32233;49.500;7.764;2022-07-29T06:27:51;5.47;;;4.97;;
7432;SDS011;32233;49.500;7.764;2022-07-29T06:30:18;5.73;;;4.50;;
7432;SDS011;32233;49.500;7.764;2022-07-29T06:32:45;4.87;;;4.47;;
7432;SDS011;32233;49.500;7.764;2022-07-29T06:35:12;4.73;;;4.33;;
7432;SDS011;32233;49.500;7.764;2022-07-29T06:37:59;5.10;;;4.40;;
7432;SDS011;32233;49.500;7.764;2022-07-29T06:40:25;5.37;;;4.87;;
7432;SDS011;32233;49.500;7.764;2022-07-29T06:43:11;4.93;;;4.30;;
7432;SDS011;32233;49.500;7.764;2022-07-29T06:45:37;4.87;;;4.13;;
7432;SDS011;32233;49.500;7.764;2022-07-29T06:48:07;4.60;;;4.07;;
7432;SDS011;32233;49.500;7.764;2022-07-29T06:50:34;6.07;;;4.47;;
7432;SDS011;32233;49.500;7.764;2022-07-29T06:53:00;4.63;;;3.80;;
7432;SDS011;32233;49.500;7.764;2022-07-29T06:55:27;4.17;;;3.80;;
7432;SDS011;32233;49.500;7.764;2022-07-29T06:57:53;4.37;;;3.90;;
7432;SDS011;32233;49.500;7.764;2022-07-29T07:00:20;4.30;;;3.90;;
7432;SDS011;32233;49.500;7.764;2022-07-29T07:02:46;4.27;;;3.87;;
7432;SDS011;32233;49.500;7.764;2022-07-29T07:05:13;3.73;;;3.43;;
7432;SDS011;32233;49.500;7.764;2022-07-29T07:07:39;3.30;;;2.90;;
7432;SDS011;32233;49.500;7.764;2022-07-29T07:10:07;3.97;;;3.23;;
7432;SDS011;32233;49.500;7.764;2022-07-29T07:12:34;2.80;;;2.60;;
7432;SDS011;32233;49.500;7.764;2022-07-29T07:15:00;4.90;;;3.20;;
7432;SDS011;32233;49.500;7.764;2022-07-29T07:17:27;3.60;;;3.30;;
7432;SDS011;32233;49.500;7.764;2022-07-29T07:19:53;3.43;;;3.13;;
7432;SDS011;32233;49.500;7.764;2022-07-29T07:22:20;3.77;;;3.10;;
7432;SDS011;32233;49.500;7.764;2022-07-29T07:24:47;3.17;;;2.77;;
7432;SDS011;32233;49.500;7.764;2022-07-29T07:27:14;3.53;;;3.17;;
7432;SDS011;32233;49.500;7.764;2022-07-29T07:29:40;3.67;;;3.00;;
7432;SDS011;32233;49.500;7.764;2022-07-29T07:32:09;3.70;;;2.90;;
7432;SDS011;32233;49.500;7.764;2022-07-29T07:34:36;4.00;;;3.37;;
7432;SDS011;32233;49.500;7.764;2022-07-29T07:37:04;5.90;;;3.33;;
7432;SDS011;32233;49.500;7.764;2022-07-29T07:39:30;5.13;;;3.00;;
7432;SDS011;32233;49.500;7.764;2022-07-29T07:41:57;3.50;;;3.20;;
7432;SDS011;32233;49.500;7.764;2022-07-29T07:44:24;4.90;;;3.27;;
7432;SDS011;32233;49.500;7.764;2022-07-29T07:46:51;5.07;;;3.10;;
7432;SDS011;32233;49.500;7.764;2022-07-29T07:49:19;3.83;;;3.33;;
7432;SDS011;32233;49.500;7.764;2022-07-29T07:51:46;4.07;;;3.67;;
7432;SDS011;32233;49.500;7.764;2022-07-29T07:54:16;5.97;;;3.37;;
7432;SDS011;32233;49.500;7.764;2022-07-29T07:56:47;5.47;;;3.20;;
7432;SDS011;32233;49.500;7.764;2022-07-29T07:59:18;3.90;;;2.93;;
7432;SDS011;32233;49.500;7.764;2022-07-29T08:01:45;4.53;;;3.37;;
7432;SDS011;32233;49.500;7.764;2022-07-29T08:04:15;4.73;;;2.90;;
7432;SDS011;32233;49.500;7.764;2022-07-29T08:06:52;3.57;;;2.70;;
7432;SDS011;32233;49.500;7.764;2022-07-29T08:09:20;4.63;;;3.03;;
7432;SDS011;32233;49.500;7.764;2022-07-29T08:11:57;3.33;;;2.70;;
7432;SDS011;32233;49.500;7.764;2022-07-29T08:14:25;4.43;;;2.97;;
7432;SDS011;32233;49.500;7.764;2022-07-29T08:16:51;2.97;;;2.67;;
7432;SDS011;32233;49.500;7.764;2022-07-29T08:19:19;2.90;;;2.70;;
7432;SDS011;32233;49.500;7.764;2022-07-29T08:21:45;5.03;;;2.93;;
7432;SDS011;32233;49.500;7.764;2022-07-29T08:24:13;5.47;;;3.23;;
7432;SDS011;32233;49.500;7.764;2022-07-29T08:26:58;3.13;;;2.93;;
7432;SDS011;32233;49.500;7.764;2022-07-29T08:29:25;4.40;;;3.03;;
7432;SDS011;32233;49.500;7.764;2022-07-29T08:31:53;3.47;;;3.17;;
7432;SDS011;32233;49.500;7.764;2022-07-29T08:34:20;3.50;;;3.20;;
7432;SDS011;32233;49.500;7.764;2022-07-29T08:36:55;4.10;;;3.30;;
7432;SDS011;32233;49.500;7.764;2022-07-29T08:39:22;4.17;;;3.40;;
7432;SDS011;32233;49.500;7.764;2022-07-29T08:41:48;4.03;;;3.10;;
7432;SDS011;32233;49.500;7.764;2022-07-29T08:44:22;5.37;;;3.20;;
7432;SDS011;32233;49.500;7.764;2022-07-29T08:46:56;4.30;;;3.90;;
7432;SDS011;32233;49.500;7.764;2022-07-29T08:49:23;3.67;;;3.33;;
7432;SDS011;32233;49.500;7.764;2022-07-29T08:51:49;3.43;;;3.13;;
7432;SDS011;32233;49.500;7.764;2022-07-29T08:54:17;4.63;;;3.53;;
7432;SDS011;32233;49.500;7.764;2022-07-29T08:56:48;4.57;;;3.23;;
7432;SDS011;32233;49.500;7.764;2022-07-29T08:59:17;6.90;;;3.90;;
7432;SDS011;32233;49.500;7.764;2022-07-29T09:01:46;5.80;;;3.50;;
7432;SDS011;32233;49.500;7.764;2022-07-29T09:04:13;5.77;;;3.30;;
7432;SDS011;32233;49.500;7.764;2022-07-29T09:06:44;3.87;;;3.47;;
7432;SDS011;32233;49.500;7.764;2022-07-29T09:09:14;4.33;;;3.37;;
7432;SDS011;32233;49.500;7.764;2022-07-29T09:11:41;3.10;;;2.00;;
7432;SDS011;32233;49.500;7.764;2022-07-29T09:14:08;3.90;;;2.60;;
7432;SDS011;32233;49.500;7.764;2022-07-29T09:16:50;6.27;;;3.30;;
7432;SDS011;32233;49.500;7.764;2022-07-29T09:19:20;4.50;;;3.10;;
7432;SDS011;32233;49.500;7.764;2022-07-29T09:21:47;3.33;;;2.93;;
7432;SDS011;32233;49.500;7.764;2022-07-29T09:24:39;6.00;;;3.43;;
7432;SDS011;32233;49.500;7.764;2022-07-29T09:27:10;5.53;;;4.07;;
7432;SDS011;32233;49.500;7.764;2022-07-29T09:29:37;6.37;;;3.70;;
7432;SDS011;32233;49.500;7.764;2022-07-29T09:32:05;4.37;;;3.97;;
7432;SDS011;32233;49.500;7.764;2022-07-29T09:34:32;3.30;;;3.00;;
7432;SDS011;32233;49.500;7.764;2022-07-29T09:36:59;4.83;;;3.70;;
7432;SDS011;32233;49.500;7.764;2022-07-29T09:41:59;4.93;;;3.83;;
7432;SDS011;32233;49.500;7.764;2022-07-29T09:44:26;4.03;;;3.50;;
7432;SDS011;32233;49.500;7.764;2022-07-29T09:49:19;3.57;;;3.07;;
7432;SDS011;32233;49.500;7.764;2022-07-29T09:51:46;2.83;;;2.53;;
7432;SDS011;32233;49.500;7.764;2022-07-29T09:54:23;3.60;;;3.27;;
7432;SDS011;32233;49.500;7.764;2022-07-29T09:56:50;4.50;;;3.60;;
7432;SDS011;32233;49.500;7.764;2022-07-29T09:59:16;8.57;;;3.30;;
7432;SDS011;32233;49.500;7.764;2022-07-29T10:01:43;3.10;;;2.90;;
7432;SDS011;32233;49.500;7.764;2022-07-29T10:04:09;3.23;;;2.93;;
7432;SDS011;32233;49.500;7.764;2022-07-29T10:06:38;3.30;;;3.10;;
7432;SDS011;32233;49.500;7.764;2022-07-29T10:09:30;3.90;;;3.50;;
7432;SDS011;32233;49.500;7.764;2022-07-29T10:12:03;3.93;;;3.53;;
7432;SDS011;32233;49.500;7.764;2022-07-29T10:14:31;6.00;;;3.07;;
7432;SDS011;32233;49.500;7.764;2022-07-29T10:16:59;5.93;;;3.27;;
7432;SDS011;32233;49.500;7.764;2022-07-29T10:19:30;4.57;;;3.17;;
7432;SDS011;32233;49.500;7.764;2022-07-29T10:21:57;3.40;;;3.20;;
7432;SDS011;32233;49.500;7.764;2022-07-29T10:24:25;3.57;;;3.20;;
7432;SDS011;32233;49.500;7.764;2022-07-29T10:26:53;3.70;;;3.33;;
7432;SDS011;32233;49.500;7.764;2022-07-29T10:29:20;5.20;;;3.53;;
7432;SDS011;32233;49.500;7.764;2022-07-29T10:31:59;5.43;;;3.27;;
7432;SDS011;32233;49.500;7.764;2022-07-29T10:34:34;3.50;;;3.20;;
7432;SDS011;32233;49.500;7.764;2022-07-29T10:42:17;6.07;;;3.83;;
7432;SDS011;32233;49.500;7.764;2022-07-29T10:44:55;4.37;;;4.07;;
7432;SDS011;32233;49.500;7.764;2022-07-29T10:47:22;3.60;;;3.30;;
7432;SDS011;32233;49.500;7.764;2022-07-29T10:49:58;4.67;;;3.27;;
7432;SDS011;32233;49.500;7.764;2022-07-29T10:55:31;5.53;;;3.53;;
7432;SDS011;32233;49.500;7.764;2022-07-29T10:58:11;3.83;;;3.43;;
7432;SDS011;32233;49.500;7.764;2022-07-29T11:00:37;3.50;;;2.90;;
7432;SDS011;32233;49.500;7.764;2022-07-29T11:03:05;3.73;;;3.40;;
7432;SDS011;32233;49.500;7.764;2022-07-29T11:05:52;3.47;;;3.03;;
7432;SDS011;32233;49.500;7.764;2022-07-29T11:08:20;3.40;;;3.20;;
7432;SDS011;32233;49.500;7.764;2022-07-29T11:10:52;3.83;;;3.53;;
7432;SDS011;32233;49.500;7.764;2022-07-29T11:16:07;3.57;;;3.37;;
7432;SDS011;32233;49.500;7.764;2022-07-29T11:18:36;3.50;;;3.13;;
7432;SDS011;32233;49.500;7.764;2022-07-29T11:21:02;6.60;;;4.93;;
7432;SDS011;32233;49.500;7.764;2022-07-29T11:23:32;2.80;;;2.60;;
7432;SDS011;32233;49.500;7.764;2022-07-29T11:31:40;4.37;;;3.30;;
7432;SDS011;32233;49.500;7.764;2022-07-29T11:34:29;3.50;;;3.20;;
7432;SDS011;32233;49.500;7.764;2022-07-29T11:39:39;3.03;;;2.83;;
7432;SDS011;32233;49.500;7.764;2022-07-29T11:45:03;3.37;;;3.07;;
7432;SDS011;32233;49.500;7.764;2022-07-29T11:47:52;34.90;;;19.33;;
7432;SDS011;32233;49.500;7.764;2022-07-29T11:52:54;9.52;;;6.57;;
7432;SDS011;32233;49.500;7.764;2022-07-29T11:55:22;28.13;;;17.27;;
7432;SDS011;32233;49.500;7.764;2022-07-29T11:57:58;14.48;;;8.60;;
7432;SDS011;32233;49.500;7.764;2022-07-29T12:00:46;6.20;;;3.40;;
7432;SDS011;32233;49.500;7.764;2022-07-29T12:03:23;4.78;;;3.72;;
7432;SDS011;32233;49.500;7.764;2022-07-29T12:06:01;3.40;;;3.10;;
7432;SDS011;32233;49.500;7.764;2022-07-29T12:08:28;4.75;;;4.35;;
7432;SDS011;32233;49.500;7.764;2022-07-29T12:10:55;5.72;;;4.80;;
7432;SDS011;32233;49.500;7.764;2022-07-29T12:13:22;4.75;;;4.30;;
7432;SDS011;32233;49.500;7.764;2022-07-29T12:16:03;4.63;;;4.18;;
7432;SDS011;32233;49.500;7.764;2022-07-29T12:18:30;5.32;;;3.28;;
7432;SDS011;32233;49.500;7.764;2022-07-29T12:20:57;3.50;;;3.20;;
7432;SDS011;32233;49.500;7.764;2022-07-29T12:23:29;4.13;;;3.60;;
7432;SDS011;32233;49.500;7.764;2022-07-29T12:26:00;3.72;;;3.00;;
7432;SDS011;32233;49.500;7.764;2022-07-29T12:28:29;3.58;;;3.20;;
7432;SDS011;32233;49.500;7.764;2022-07-29T12:30:56;3.22;;;2.92;;
7432;SDS011;32233;49.500;7.764;2022-07-29T12:33:24;2.92;;;2.72;;
7432;SDS011;32233;49.500;7.764;2022-07-29T12:35:51;3.40;;;2.95;;
7432;SDS011;32233;49.500;7.764;2022-07-29T12:38:31;3.15;;;2.90;;
7432;SDS011;32233;49.500;7.764;2022-07-29T12:40:59;4.35;;;3.10;;
7432;SDS011;32233;49.500;7.764;2022-07-29T12:43:25;3.20;;;3.00;;
7432;SDS011;32233;49.500;7.764;2022-07-29T12:45:52;3.10;;;2.53;;
7432;SDS011;32233;49.500;7.764;2022-07-29T12:51:32;2.67;;;2.47;;
7432;SDS011;32233;49.500;7.764;2022-07-29T12:54:03;3.17;;;2.55;;
7432;SDS011;32233;49.500;7.764;2022-07-29T12:56:29;4.18;;;3.20;;
7432;SDS011;32233;49.500;7.764;2022-07-29T12:59:19;2.78;;;2.58;;
7432;SDS011;32233;49.500;7.764;2022-07-29T13:01:51;2.43;;;2.23;;
7432;SDS011;32233;49.500;7.764;2022-07-29T13:04:25;2.77;;;2.57;;
7432;SDS011;32233;49.500;7.764;2022-07-29T13:07:02;3.97;;;2.63;;
7432;SDS011;32233;49.500;7.764;2022-07-29T13:12:10;3.00;;;2.70;;
7432;SDS011;32233;49.500;7.764;2022-07-29T13:14:38;2.63;;;2.43;;
7432;SDS011;32233;49.500;7.764;2022-07-29T13:19:35;2.50;;;2.07;;
7432;SDS011;32233;49.500;7.764;2022-07-29T13:22:02;2.67;;;2.00;;
7432;SDS011;32233;49.500;7.764;2022-07-29T13:24:29;2.30;;;2.10;;
7432;SDS011;32233;49.500;7.764;2022-07-29T13:26:57;2.67;;;2.30;;
7432;SDS011;32233;49.500;7.764;2022-07-29T13:29:24;2.37;;;2.13;;
7432;SDS011;32233;49.500;7.764;2022-07-29T13:31:58;2.60;;;2.20;;
7432;SDS011;32233;49.500;7.764;2022-07-29T13:34:26;2.10;;;1.97;;
7432;SDS011;32233;49.500;7.764;2022-07-29T13:36:52;4.03;;;2.20;;
7432;SDS011;32233;49.500;7.764;2022-07-29T13:39:19;4.53;;;2.27;;
7432;SDS011;32233;49.500;7.764;2022-07-29T13:41:45;2.53;;;2.07;;
7432;SDS011;32233;49.500;7.764;2022-07-29T13:44:12;2.67;;;2.43;;
7432;SDS011;32233;49.500;7.764;2022-07-29T13:46:39;2.90;;;2.27;;
7432;SDS011;32233;49.500;7.764;2022-07-29T13:49:05;2.43;;;2.13;;
7432;SDS011;32233;49.500;7.764;2022-07-29T13:51:32;2.23;;;2.03;;
7432;SDS011;32233;49.500;7.764;2022-07-29T13:53:58;2.20;;;2.00;;
7432;SDS011;32233;49.500;7.764;2022-07-29T13:56:25;4.53;;;1.90;;
7432;SDS011;32233;49.500;7.764;2022-07-29T13:58:53;4.87;;;2.20;;
7432;SDS011;32233;49.500;7.764;2022-07-29T14:01:20;4.60;;;2.33;;
7432;SDS011;32233;49.500;7.764;2022-07-29T14:03:46;5.37;;;2.20;;
7432;SDS011;32233;49.500;7.764;2022-07-29T14:06:13;5.07;;;2.20;;
7432;SDS011;32233;49.500;7.764;2022-07-29T14:08:40;2.77;;;2.10;;
7432;SDS011;32233;49.500;7.764;2022-07-29T14:11:07;3.50;;;2.17;;
7432;SDS011;32233;49.500;7.764;2022-07-29T14:13:33;3.27;;;2.23;;
7432;SDS011;32233;49.500;7.764;2022-07-29T14:16:01;2.77;;;2.10;;
7432;SDS011;32233;49.500;7.764;2022-07-29T14:18:28;3.57;;;1.80;;
7432;SDS011;32233;49.500;7.764;2022-07-29T14:20:56;3.73;;;1.70;;
7432;SDS011;32233;49.500;7.764;2022-07-29T14:23:23;3.07;;;1.40;;
7432;SDS011;32233;49.500;7.764;2022-07-29T14:25:51;3.53;;;1.53;;
7432;SDS011;32233;49.500;7.764;2022-07-29T14:28:19;2.90;;;1.77;;
7432;SDS011;32233;49.500;7.764;2022-07-29T14:30:46;2.57;;;1.60;;
7432;SDS011;32233;49.500;7.764;2022-07-29T14:33:12;2.40;;;1.90;;
7432;SDS011;32233;49.500;7.764;2022-07-29T14:35:39;2.37;;;1.67;;
7432;SDS011;32233;49.500;7.764;2022-07-29T14:38:05;2.17;;;1.83;;
7432;SDS011;32233;49.500;7.764;2022-07-29T14:40:31;4.03;;;1.80;;
7432;SDS011;32233;49.500;7.764;2022-07-29T14:42:58;6.33;;;1.80;;
7432;SDS011;32233;49.500;7.764;2022-07-29T14:45:24;2.17;;;1.67;;
7432;SDS011;32233;49.500;7.764;2022-07-29T14:47:51;2.23;;;1.90;;
7432;SDS011;32233;49.500;7.764;2022-07-29T14:50:22;4.80;;;1.90;;
7432;SDS011;32233;49.500;7.764;2022-07-29T14:53:01;3.67;;;1.73;;
7432;SDS011;32233;49.500;7.764;2022-07-29T14:55:28;3.17;;;1.70;;
7432;SDS011;32233;49.500;7.764;2022-07-29T14:57:56;2.77;;;1.63;;
7432;SDS011;32233;49.500;7.764;2022-07-29T15:00:35;3.53;;;1.67;;
7432;SDS011;32233;49.500;7.764;2022-07-29T15:03:03;2.30;;;1.90;;
7432;SDS011;32233;49.500;7.764;2022-07-29T15:05:30;2.57;;;1.50;;
7432;SDS011;32233;49.500;7.764;2022-07-29T15:07:58;2.00;;;1.73;;
7432;SDS011;32233;49.500;7.764;2022-07-29T15:10:25;3.10;;;1.73;;
7432;SDS011;32233;49.500;7.764;2022-07-29T15:12:56;3.27;;;1.63;;
7432;SDS011;32233;49.500;7.764;2022-07-29T15:15:23;2.90;;;1.60;;
7432;SDS011;32233;49.500;7.764;2022-07-29T15:17:49;1.93;;;1.37;;
7432;SDS011;32233;49.500;7.764;2022-07-29T15:20:16;3.77;;;1.60;;
7432;SDS011;32233;49.500;7.764;2022-07-29T15:22:44;2.57;;;1.57;;
7432;SDS011;32233;49.500;7.764;2022-07-29T15:25:11;4.13;;;1.80;;
7432;SDS011;32233;49.500;7.764;2022-07-29T15:27:37;7.90;;;1.70;;
7432;SDS011;32233;49.500;7.764;2022-07-29T15:30:03;1.93;;;1.60;;
7432;SDS011;32233;49.500;7.764;2022-07-29T15:32:30;2.40;;;1.63;;
7432;SDS011;32233;49.500;7.764;2022-07-29T15:34:56;2.37;;;1.50;;
7432;SDS011;32233;49.500;7.764;2022-07-29T15:37:23;2.27;;;1.70;;
7432;SDS011;32233;49.500;7.764;2022-07-29T15:39:49;1.60;;;1.40;;
7432;SDS011;32233;49.500;7.764;2022-07-29T15:42:16;3.80;;;1.67;;
7432;SDS011;32233;49.500;7.764;2022-07-29T15:44:45;2.97;;;1.57;;
7432;SDS011;32233;49.500;7.764;2022-07-29T15:47:12;3.20;;;1.47;;
7432;SDS011;32233;49.500;7.764;2022-07-29T15:49:41;3.97;;;1.10;;
7432;SDS011;32233;49.500;7.764;2022-07-29T15:52:17;2.87;;;1.20;;
7432;SDS011;32233;49.500;7.764;2022-07-29T15:54:51;1.30;;;1.20;;
7432;SDS011;32233;49.500;7.764;2022-07-29T15:57:18;1.90;;;1.00;;
7432;SDS011;32233;49.500;7.764;2022-07-29T15:59:46;2.37;;;1.27;;
7432;SDS011;32233;49.500;7.764;2022-07-29T16:02:13;2.00;;;1.10;;
7432;SDS011;32233;49.500;7.764;2022-07-29T16:04:39;3.00;;;1.30;;
7432;SDS011;32233;49.500;7.764;2022-07-29T16:07:06;2.07;;;1.27;;
7432;SDS011;32233;49.500;7.764;2022-07-29T16:09:32;1.40;;;1.27;;